Time;durP1;ratioP1;P1;durP2;ratioP2;P2;SDS_P1;SDS_P2;PMS_P1;PMS_P2;Temp;Humidity;BMP_temperature;BMP_pressure;BME280_temperature;BME280_humidity;BME280_pressure;Samples;Min_cycle;Max_cycle;Signal;HPM_P1;HPM_P2
2021/11/13 00:01:20;;;;;;;36.58;17.38;;;10.50;99.90;;;;;;4976413;28;20054;-81
2021/11/13 00:03:46;;;;;;;36.97;17.58;;;10.50;99.90;;;;;;4993946;28;20053;-82
2021/11/13 00:06:11;;;;;;;37.85;18.63;;;10.50;99.90;;;;;;4993575;28;20050;-82
2021/11/13 00:08:37;;;;;;;41.38;17.30;;;10.50;99.90;;;;;;4993614;28;20380;-82
2021/11/13 00:11:04;;;;;;;33.40;16.58;;;10.50;99.90;;;;;;4976289;28;20030;-81
2021/11/13 00:13:33;;;;;;;41.60;18.42;;;10.50;99.90;;;;;;4993389;28;20031;-82
2021/11/13 00:15:59;;;;;;;31.42;17.00;;;10.50;99.90;;;;;;4993549;28;20054;-82
2021/11/13 00:18:25;;;;;;;37.00;17.17;;;10.50;99.90;;;;;;4993598;28;20116;-82
2021/11/13 00:20:50;;;;;;;35.65;18.90;;;10.50;99.90;;;;;;4993543;28;20041;-82
2021/11/13 00:23:18;;;;;;;37.55;17.02;;;10.50;99.90;;;;;;4993304;28;20377;-82
2021/11/13 00:25:43;;;;;;;34.85;18.20;;;10.50;99.90;;;;;;4976131;28;20361;-82
2021/11/13 00:28:09;;;;;;;35.33;17.52;;;10.40;99.90;;;;;;4993413;28;20077;-82
2021/11/13 00:30:38;;;;;;;39.40;16.75;;;10.50;99.90;;;;;;4993265;28;20064;-82
2021/11/13 00:33:04;;;;;;;36.92;18.00;;;10.40;99.90;;;;;;4993065;28;20029;-82
2021/11/13 00:35:29;;;;;;;38.40;18.20;;;10.40;99.90;;;;;;4975977;28;20030;-82
2021/11/13 00:37:55;;;;;;;36.53;17.85;;;10.50;99.90;;;;;;4993104;28;20160;-83
2021/11/13 00:40:21;;;;;;;34.17;17.63;;;10.50;99.90;;;;;;4992974;28;20038;-82
2021/11/13 00:42:48;;;;;;;36.88;18.73;;;10.50;99.90;;;;;;4993113;28;20432;-82
2021/11/13 00:45:14;;;;;;;38.95;19.65;;;10.50;99.90;;;;;;4993124;28;20081;-82
2021/11/13 00:47:40;;;;;;;38.95;18.25;;;10.50;99.90;;;;;;4975580;28;20030;-82
2021/11/13 00:50:07;;;;;;;37.30;17.65;;;10.50;99.90;;;;;;4992969;28;20029;-82
2021/11/13 00:52:34;;;;;;;41.72;18.50;;;10.50;99.90;;;;;;4974854;28;20018;-82
2021/11/13 00:54:59;;;;;;;44.28;18.15;;;10.50;99.90;;;;;;4992983;28;20523;-82
2021/11/13 00:57:25;;;;;;;34.25;16.73;;;10.40;99.90;;;;;;4975767;28;20038;-82
2021/11/13 00:59:51;;;;;;;41.80;18.45;;;10.50;99.90;;;;;;4975264;28;20108;-83
2021/11/13 01:02:20;;;;;;;39.67;18.60;;;10.50;99.90;;;;;;4992706;28;20022;-82
2021/11/13 01:04:45;;;;;;;41.03;17.95;;;10.50;99.90;;;;;;4992592;28;20045;-82
2021/11/13 01:07:11;;;;;;;38.58;16.95;;;10.50;99.90;;;;;;4992903;28;20022;-82
2021/11/13 01:09:38;;;;;;;36.00;18.10;;;10.50;99.90;;;;;;4994723;28;20144;-82
2021/11/13 01:12:04;;;;;;;44.47;18.75;;;10.50;99.90;;;;;;4992517;28;20011;-82
2021/11/13 01:14:30;;;;;;;33.88;17.10;;;10.50;99.90;;;;;;4975184;28;20506;-82
2021/11/13 01:16:55;;;;;;;43.00;18.65;;;10.50;99.90;;;;;;4992518;28;20057;-81
2021/11/13 01:19:22;;;;;;;40.67;17.80;;;10.50;99.90;;;;;;4992664;28;20392;-82
2021/11/13 01:21:48;;;;;;;41.20;18.50;;;10.60;99.90;;;;;;4992308;28;20026;-82
2021/11/13 01:24:14;;;;;;;37.33;17.73;;;10.50;99.90;;;;;;4992417;28;20022;-82
2021/11/13 01:26:40;;;;;;;41.90;18.35;;;10.50;99.90;;;;;;4992432;28;20060;-82
2021/11/13 01:29:09;;;;;;;42.22;17.38;;;10.50;99.90;;;;;;4992436;28;20110;-82
2021/11/13 01:31:35;;;;;;;37.90;18.75;;;10.50;99.90;;;;;;4992149;28;20038;-82
2021/11/13 01:34:01;;;;;;;39.28;18.10;;;10.50;99.90;;;;;;4992327;28;20030;-82
2021/11/13 01:36:27;;;;;;;40.55;19.15;;;10.50;99.90;;;;;;4992343;28;20027;-82
2021/11/13 01:38:54;;;;;;;38.95;17.65;;;10.50;99.90;;;;;;4992134;28;20118;-82
2021/11/13 01:41:20;;;;;;;40.72;18.88;;;10.50;99.90;;;;;;4992300;28;20468;-82
2021/11/13 01:43:46;;;;;;;41.63;17.58;;;10.50;99.90;;;;;;4974769;28;20498;-82
2021/11/13 01:46:12;;;;;;;40.13;17.58;;;10.50;99.90;;;;;;4991568;28;20019;-82
2021/11/13 01:48:38;;;;;;;43.17;17.77;;;10.50;99.90;;;;;;4992400;28;20109;-82
2021/11/13 01:51:34;;;;;;;38.75;17.52;;;10.50;99.90;;;;;;4992304;28;20027;-82
2021/11/13 01:54:06;;;;;;;41.20;17.35;;;10.50;99.90;;;;;;4979575;28;20097;-82
2021/11/13 01:56:38;;;;;;;40.17;17.90;;;10.50;99.90;;;;;;4992046;28;20119;-82
2021/11/13 01:59:06;;;;;;;36.95;17.75;;;10.50;99.90;;;;;;4992094;28;20109;-82
2021/11/13 02:01:33;;;;;;;34.83;17.70;;;10.50;99.90;;;;;;4974425;28;20034;-81
2021/11/13 02:03:59;;;;;;;39.17;17.88;;;10.50;99.90;;;;;;4993658;28;20037;-82
2021/11/13 02:06:25;;;;;;;42.58;18.17;;;10.40;99.90;;;;;;4995861;28;20062;-82
2021/11/13 02:08:51;;;;;;;40.58;18.48;;;10.40;99.90;;;;;;4996401;28;20029;-83
2021/11/13 02:11:20;;;;;;;37.97;17.67;;;10.40;99.90;;;;;;4996855;28;20507;-74
2021/11/13 02:13:46;;;;;;;38.30;17.85;;;10.40;99.90;;;;;;4996262;28;20050;-74
2021/11/13 02:16:14;;;;;;;40.20;17.48;;;10.40;99.90;;;;;;4996625;28;20030;-74
2021/11/13 02:18:41;;;;;;;41.30;18.60;;;10.40;99.90;;;;;;4996133;28;20030;-74
2021/11/13 02:21:09;;;;;;;40.55;17.40;;;10.30;99.90;;;;;;4995678;28;20030;-74
2021/11/13 02:23:35;;;;;;;40.85;18.02;;;10.30;99.90;;;;;;4995617;28;20022;-74
2021/11/13 02:26:01;;;;;;;39.65;16.67;;;10.30;99.90;;;;;;4995662;28;20050;-74
2021/11/13 02:28:27;;;;;;;39.13;16.92;;;10.30;99.90;;;;;;4995516;28;20080;-74
2021/11/13 02:30:56;;;;;;;34.80;17.23;;;10.30;99.90;;;;;;4978311;28;20026;-74
2021/11/13 02:33:22;;;;;;;34.55;16.98;;;10.30;99.90;;;;;;4995357;28;20038;-74
2021/11/13 02:35:50;;;;;;;41.30;17.85;;;10.30;99.90;;;;;;4995510;28;20484;-74
2021/11/13 02:38:19;;;;;;;40.03;17.45;;;10.30;99.90;;;;;;4995309;28;20468;-74
2021/11/13 02:40:56;;;;;;;38.78;17.85;;;10.30;99.90;;;;;;4995374;28;20030;-75
2021/11/13 02:43:26;;;;;;;41.90;18.98;;;10.20;99.90;;;;;;4995342;28;20018;-74
2021/11/13 02:46:01;;;;;;;34.40;17.52;;;10.20;99.90;;;;;;4995185;28;20023;-74
2021/11/13 02:48:28;;;;;;;41.40;17.80;;;10.20;99.90;;;;;;4977664;28;20068;-75
2021/11/13 02:50:54;;;;;;;40.10;17.52;;;10.20;99.90;;;;;;4977618;28;20030;-74
2021/11/13 02:53:26;;;;;;;39.97;17.55;;;10.20;99.90;;;;;;4995187;28;20023;-75
2021/11/13 02:55:54;;;;;;;37.28;17.80;;;10.20;99.90;;;;;;4977646;28;20031;-75
2021/11/13 02:58:21;;;;;;;37.25;17.73;;;10.20;99.90;;;;;;4994810;28;20034;-74
2021/11/13 03:00:52;;;;;;;41.22;17.00;;;10.20;99.90;;;;;;4994830;28;20183;-75
2021/11/13 03:03:20;;;;;;;40.38;18.35;;;10.10;99.90;;;;;;4994792;28;20038;-74
2021/11/13 03:05:49;;;;;;;42.85;18.65;;;10.10;99.90;;;;;;4977169;28;20050;-75
2021/11/13 03:08:38;;;;;;;34.83;17.48;;;10.10;99.90;;;;;;4977397;28;20026;-75
2021/11/13 03:11:10;;;;;;;35.75;16.38;;;10.10;99.90;;;;;;4995096;28;20033;-75
2021/11/13 03:13:38;;;;;;;36.00;16.30;;;10.00;99.90;;;;;;4979502;28;20112;-75
2021/11/13 03:16:06;;;;;;;37.45;16.50;;;10.00;99.90;;;;;;4976453;28;20054;-74
2021/11/13 03:18:32;;;;;;;30.65;15.65;;;10.00;99.90;;;;;;4977195;28;20033;-75
2021/11/13 03:20:58;;;;;;;34.42;15.48;;;9.90;99.90;;;;;;4994556;28;20058;-74
2021/11/13 03:23:25;;;;;;;35.53;17.48;;;10.00;99.90;;;;;;4977023;28;20032;-75
2021/11/13 03:26:10;;;;;;;38.33;16.95;;;10.00;99.90;;;;;;4994757;28;20030;-75
2021/11/13 03:28:39;;;;;;;37.30;17.10;;;10.00;99.90;;;;;;4994712;28;20388;-74
2021/11/13 03:31:06;;;;;;;31.98;16.40;;;10.00;99.90;;;;;;4994476;28;20029;-74
2021/11/13 03:33:36;;;;;;;38.15;16.10;;;9.90;99.90;;;;;;4994246;28;20321;-74
2021/11/13 03:36:07;;;;;;;37.72;15.90;;;9.90;99.90;;;;;;4994346;28;20034;-75
2021/11/13 03:38:35;;;;;;;38.53;17.30;;;9.80;99.90;;;;;;4976798;28;20438;-74
2021/11/13 03:41:02;;;;;;;38.13;17.50;;;9.70;99.90;;;;;;4994191;28;20037;-75
2021/11/13 03:43:27;;;;;;;42.08;17.20;;;9.80;99.90;;;;;;4994501;28;20037;-75
2021/11/13 03:45:53;;;;;;;42.28;17.40;;;9.80;99.90;;;;;;4993944;28;20023;-75
2021/11/13 03:48:19;;;;;;;36.53;16.00;;;9.90;99.90;;;;;;4994273;28;20108;-74
2021/11/13 03:50:47;;;;;;;42.30;17.77;;;9.90;99.90;;;;;;4993864;28;20022;-75
2021/11/13 03:53:13;;;;;;;39.25;16.75;;;9.90;99.90;;;;;;4993907;28;20122;-74
2021/11/13 03:55:39;;;;;;;37.40;17.45;;;10.00;99.90;;;;;;4994097;28;20030;-75
2021/11/13 03:58:05;;;;;;;40.10;18.17;;;10.00;99.90;;;;;;4976466;28;20030;-75
2021/11/13 04:00:32;;;;;;;43.20;19.38;;;10.00;99.90;;;;;;4993871;28;20030;-75
2021/11/13 04:02:57;;;;;;;40.65;17.77;;;10.00;99.90;;;;;;4976126;28;20029;-74
2021/11/13 04:05:23;;;;;;;35.45;17.20;;;10.00;99.90;;;;;;4993694;28;20407;-74
2021/11/13 04:07:50;;;;;;;36.53;17.42;;;10.00;99.90;;;;;;4993707;28;20032;-74
2021/11/13 04:10:17;;;;;;;37.50;16.63;;;10.10;99.90;;;;;;4993710;28;20031;-74
2021/11/13 04:12:43;;;;;;;33.65;15.73;;;10.10;99.90;;;;;;4993624;28;20026;-75
2021/11/13 04:15:11;;;;;;;37.05;15.32;;;10.20;99.90;;;;;;4976027;28;20031;-74
2021/11/13 04:17:37;;;;;;;37.13;17.88;;;10.20;99.90;;;;;;4975976;28;20412;-75
2021/11/13 04:20:05;;;;;;;36.70;16.85;;;10.20;99.90;;;;;;4993709;28;20531;-74
2021/11/13 04:22:31;;;;;;;36.65;16.20;;;10.30;99.90;;;;;;4993268;28;20476;-74
2021/11/13 04:24:57;;;;;;;32.63;16.73;;;10.30;99.90;;;;;;4993396;28;20029;-74
2021/11/13 04:27:22;;;;;;;32.10;16.15;;;10.30;99.90;;;;;;4975018;28;20062;-75
2021/11/13 04:29:48;;;;;;;41.05;16.48;;;10.30;99.90;;;;;;4993185;28;20026;-74
2021/11/13 04:32:16;;;;;;;34.10;15.20;;;10.40;99.90;;;;;;4993360;28;20507;-75
2021/11/13 04:37:37;;;;;;;32.58;15.95;;;10.40;99.90;;;;;;4974155;28;20030;-74
2021/11/13 04:40:03;;;;;;;38.05;16.58;;;10.40;99.90;;;;;;4993108;28;20159;-74
2021/11/13 04:42:29;;;;;;;34.80;15.82;;;10.50;99.90;;;;;;4975641;28;20038;-74
2021/11/13 04:44:55;;;;;;;28.30;14.82;;;10.50;99.90;;;;;;4992972;28;20496;-74
2021/11/13 04:47:20;;;;;;;33.25;15.63;;;10.50;99.90;;;;;;4993053;28;20069;-74
2021/11/13 04:49:46;;;;;;;33.10;16.20;;;10.40;99.90;;;;;;4993157;28;20027;-74
2021/11/13 04:52:12;;;;;;;40.83;17.45;;;10.40;99.90;;;;;;4975435;28;20038;-74
2021/11/13 04:54:39;;;;;;;40.17;17.70;;;10.40;99.90;;;;;;4992690;28;20037;-74
2021/11/13 04:57:05;;;;;;;38.60;18.30;;;10.40;99.90;;;;;;4992904;28;20038;-74
2021/11/13 04:59:31;;;;;;;42.53;17.02;;;10.40;99.90;;;;;;4992661;28;20027;-74
2021/11/13 05:01:57;;;;;;;35.60;17.23;;;10.40;99.90;;;;;;4975415;28;20038;-74
2021/11/13 05:04:22;;;;;;;34.33;15.93;;;10.40;99.90;;;;;;4993654;28;20487;-74
2021/11/13 05:06:48;;;;;;;30.65;15.38;;;10.40;99.90;;;;;;4993628;28;20491;-74
2021/11/13 05:09:14;;;;;;;33.55;15.60;;;10.40;99.90;;;;;;4993657;28;20026;-74
2021/11/13 05:11:40;;;;;;;32.22;15.30;;;10.40;99.90;;;;;;4993857;28;20038;-74
2021/11/13 05:14:05;;;;;;;33.38;15.85;;;10.40;99.90;;;;;;4993886;28;20041;-75
2021/11/13 05:16:31;;;;;;;27.42;14.50;;;10.40;99.90;;;;;;4977373;28;20678;-75
2021/11/13 05:18:57;;;;;;;29.77;14.98;;;10.40;99.90;;;;;;5007911;28;20069;-74
2021/11/13 05:21:23;;;;;;;31.27;15.48;;;10.40;99.90;;;;;;5001918;28;20487;-75
2021/11/13 05:23:52;;;;;;;33.80;16.25;;;10.40;99.90;;;;;;5000634;28;20026;-75
2021/11/13 05:26:18;;;;;;;32.55;16.02;;;10.30;99.90;;;;;;4975587;28;20109;-75
2021/11/13 05:28:44;;;;;;;34.03;15.50;;;10.30;99.90;;;;;;4975635;28;20117;-75
2021/11/13 05:31:12;;;;;;;35.45;17.63;;;10.30;99.90;;;;;;4975382;28;20048;-74
2021/11/13 05:33:39;;;;;;;41.08;18.38;;;10.30;99.90;;;;;;4975811;28;20129;-74
2021/11/13 05:36:08;;;;;;;40.13;16.50;;;10.30;99.90;;;;;;4976103;28;20441;-74
2021/11/13 05:38:34;;;;;;;44.13;19.15;;;10.30;99.90;;;;;;4993142;28;20492;-74
2021/11/13 05:41:00;;;;;;;41.55;18.30;;;10.30;99.90;;;;;;4993219;28;20471;-74
2021/11/13 05:43:26;;;;;;;36.53;17.58;;;10.20;99.90;;;;;;4975766;28;20050;-74
2021/11/13 05:45:52;;;;;;;36.92;17.45;;;10.20;99.90;;;;;;4993567;28;20369;-74
2021/11/13 05:48:18;;;;;;;40.90;18.38;;;10.10;99.90;;;;;;4993889;28;20472;-82
2021/11/13 05:50:45;;;;;;;41.60;18.80;;;10.20;99.90;;;;;;4993608;28;20030;-83
2021/11/13 05:53:12;;;;;;;43.58;18.73;;;10.20;99.90;;;;;;4993671;28;20102;-82
2021/11/13 05:55:38;;;;;;;40.28;19.35;;;10.20;99.90;;;;;;4993863;28;20022;-82
2021/11/13 05:58:05;;;;;;;42.47;19.25;;;10.20;99.90;;;;;;4993509;28;20493;-82
2021/11/13 06:00:32;;;;;;;40.53;18.33;;;10.30;99.90;;;;;;4993308;28;20023;-82
2021/11/13 06:02:57;;;;;;;38.50;18.17;;;10.20;99.90;;;;;;4975906;28;20027;-82
2021/11/13 06:05:23;;;;;;;38.53;19.60;;;10.20;99.90;;;;;;4993089;28;20048;-83
2021/11/13 06:07:50;;;;;;;47.22;20.88;;;10.10;99.90;;;;;;4975947;28;20068;-82
2021/11/13 06:10:18;;;;;;;43.50;20.67;;;10.10;99.90;;;;;;4993474;28;20109;-82
2021/11/13 06:12:44;;;;;;;42.47;20.85;;;10.10;99.90;;;;;;4993286;28;20112;-82
2021/11/13 06:15:11;;;;;;;50.53;21.70;;;10.10;99.90;;;;;;4975867;28;20031;-82
2021/11/13 06:17:37;;;;;;;48.92;22.27;;;10.00;99.90;;;;;;4993366;28;20058;-82
2021/11/13 06:20:04;;;;;;;52.15;23.73;;;10.00;99.90;;;;;;4993533;28;20050;-82
2021/11/13 06:22:33;;;;;;;44.63;20.33;;;10.00;99.90;;;;;;4993298;28;20117;-82
2021/11/13 06:24:59;;;;;;;45.92;22.83;;;10.00;99.90;;;;;;4993452;28;20027;-82
2021/11/13 06:27:25;;;;;;;43.42;22.23;;;10.00;99.90;;;;;;4992839;28;20383;-82
2021/11/13 06:29:51;;;;;;;47.00;21.85;;;10.00;99.90;;;;;;4993445;28;20019;-82
2021/11/13 06:32:17;;;;;;;45.83;20.92;;;10.00;99.90;;;;;;4992956;28;20392;-82
2021/11/13 06:34:44;;;;;;;50.65;22.67;;;10.00;99.90;;;;;;4991311;28;20026;-81
2021/11/13 06:37:11;;;;;;;53.45;24.20;;;10.00;99.90;;;;;;4975043;28;20512;-81
2021/11/13 06:40:06;;;;;;;44.53;21.35;;;10.10;99.90;;;;;;4991636;28;20566;-81
2021/11/13 06:42:36;;;;;;;47.35;20.83;;;10.10;99.90;;;;;;4976805;28;20365;-81
2021/11/13 06:45:04;;;;;;;45.42;19.73;;;10.20;99.90;;;;;;4992172;28;21665;-81
2021/11/13 06:47:29;;;;;;;47.50;20.83;;;10.20;99.90;;;;;;4995186;28;20034;-80
2021/11/13 06:49:55;;;;;;;44.15;21.45;;;10.20;99.90;;;;;;4992106;28;20384;-80
2021/11/13 06:52:21;;;;;;;55.53;22.40;;;10.30;99.90;;;;;;4994948;28;20049;-74
2021/11/13 06:54:47;;;;;;;88.38;25.48;;;10.30;99.90;;;;;;4996107;28;20109;-74
2021/11/13 06:57:17;;;;;;;73.20;24.38;;;10.30;99.90;;;;;;4974763;28;20022;-74
2021/11/13 06:59:43;;;;;;;65.80;23.77;;;10.30;99.90;;;;;;4978850;28;20520;-74
2021/11/13 07:02:09;;;;;;;56.33;23.35;;;10.30;99.90;;;;;;4978107;28;20037;-74
2021/11/13 07:04:36;;;;;;;64.35;24.92;;;10.30;99.90;;;;;;4992226;28;20146;-74
2021/11/13 07:07:02;;;;;;;58.10;25.27;;;10.40;99.90;;;;;;4976939;28;20077;-74
2021/11/13 07:09:28;;;;;;;66.40;26.65;;;10.40;99.90;;;;;;4981341;28;20027;-75
2021/11/13 07:11:54;;;;;;;64.80;28.33;;;10.40;99.90;;;;;;4997378;28;20166;-74
2021/11/13 07:14:20;;;;;;;59.13;26.67;;;10.40;99.90;;;;;;5009330;28;20036;-74
2021/11/13 07:16:46;;;;;;;60.38;27.10;;;10.40;99.90;;;;;;4978507;28;20392;-74
2021/11/13 07:19:11;;;;;;;56.63;25.75;;;10.50;99.90;;;;;;4995869;28;20037;-74
2021/11/13 07:21:39;;;;;;;58.30;27.63;;;10.50;99.90;;;;;;4995640;28;20038;-74
2021/11/13 07:24:06;;;;;;;56.72;25.17;;;10.50;99.90;;;;;;4978351;28;20088;-74
2021/11/13 07:26:32;;;;;;;57.65;26.55;;;10.50;99.90;;;;;;4978520;28;20022;-74
2021/11/13 07:29:04;;;;;;;53.50;24.95;;;10.50;99.90;;;;;;4995809;28;20038;-74
2021/11/13 07:31:29;;;;;;;62.10;26.60;;;10.50;99.90;;;;;;4995138;28;20353;-74
2021/11/13 07:33:55;;;;;;;60.13;25.85;;;10.60;99.90;;;;;;4994155;28;20258;-74
2021/11/13 07:36:22;;;;;;;60.35;25.85;;;10.60;99.90;;;;;;4994077;28;20037;-74
2021/11/13 07:38:47;;;;;;;58.72;25.02;;;10.60;99.90;;;;;;4994138;28;20073;-74
2021/11/13 07:41:14;;;;;;;62.38;26.40;;;10.70;99.90;;;;;;4994017;28;20108;-74
2021/11/13 07:43:40;;;;;;;54.30;25.75;;;10.70;99.90;;;;;;4976677;28;20033;-74
2021/11/13 07:46:06;;;;;;;64.40;27.17;;;10.80;99.90;;;;;;4994435;28;20034;-74
2021/11/13 07:48:35;;;;;;;62.78;27.15;;;10.80;99.90;;;;;;4994615;28;20097;-74
2021/11/13 07:51:04;;;;;;;67.25;23.45;;;10.90;99.90;;;;;;4994570;28;20026;-74
2021/11/13 07:53:31;;;;;;;54.90;23.45;;;10.90;99.90;;;;;;4994291;28;20109;-74
2021/11/13 07:55:57;;;;;;;56.30;23.13;;;10.90;99.90;;;;;;4977064;28;20128;-74
2021/11/13 07:58:23;;;;;;;59.63;25.00;;;11.00;99.90;;;;;;4994943;28;20042;-74
2021/11/13 08:00:49;;;;;;;61.10;27.23;;;11.00;99.90;;;;;;4995309;28;20034;-74
2021/11/13 08:03:16;;;;;;;65.53;27.42;;;11.00;99.90;;;;;;4977327;28;20383;-74
2021/11/13 08:05:42;;;;;;;64.75;27.45;;;11.10;99.90;;;;;;4994789;28;20112;-74
2021/11/13 08:08:08;;;;;;;61.20;27.60;;;11.10;99.90;;;;;;4995097;28;20030;-74
2021/11/13 08:10:41;;;;;;;70.22;29.92;;;11.10;99.90;;;;;;4977299;28;20383;-74
2021/11/13 08:13:12;;;;;;;62.70;28.15;;;11.10;99.90;;;;;;4994868;28;20383;-74
2021/11/13 08:15:38;;;;;;;62.88;28.08;;;11.10;99.90;;;;;;4994703;28;20077;-74
2021/11/13 08:18:04;;;;;;;65.10;29.23;;;11.20;99.90;;;;;;4994785;28;20018;-74
2021/11/13 08:20:31;;;;;;;67.60;27.35;;;11.20;99.90;;;;;;4994700;28;20364;-74
2021/11/13 08:22:57;;;;;;;55.95;25.90;;;11.20;99.90;;;;;;4976838;28;20041;-74
2021/11/13 08:25:23;;;;;;;60.33;28.77;;;11.30;99.90;;;;;;4976862;28;20037;-74
2021/11/13 08:27:49;;;;;;;55.72;26.92;;;11.30;99.90;;;;;;4976838;28;20026;-74
2021/11/13 08:30:16;;;;;;;66.63;29.48;;;11.30;99.90;;;;;;4994672;28;20026;-74
2021/11/13 08:32:43;;;;;;;59.33;27.55;;;11.40;99.90;;;;;;4994498;28;20041;-74
2021/11/13 08:35:10;;;;;;;63.60;28.92;;;11.40;99.90;;;;;;4994384;28;20041;-74
2021/11/13 08:37:37;;;;;;;61.63;28.77;;;11.30;99.90;;;;;;4976862;28;20054;-74
2021/11/13 08:40:03;;;;;;;67.50;29.15;;;11.30;99.90;;;;;;4994239;28;20431;-73
2021/11/13 08:42:29;;;;;;;70.65;29.55;;;11.40;99.90;;;;;;4993810;28;20023;-74
2021/11/13 08:44:55;;;;;;;65.15;30.67;;;11.40;99.90;;;;;;4976933;28;20029;-74
2021/11/13 08:47:21;;;;;;;63.33;28.33;;;11.40;99.90;;;;;;4976476;28;20023;-74
2021/11/13 08:49:48;;;;;;;69.00;29.65;;;11.40;99.90;;;;;;4994243;28;20029;-74
2021/11/13 08:52:17;;;;;;;72.57;32.13;;;11.40;99.90;;;;;;4993904;28;20378;-74
2021/11/13 08:54:44;;;;;;;66.85;31.25;;;11.40;99.90;;;;;;4994061;28;20046;-74
2021/11/13 08:57:11;;;;;;;65.82;30.58;;;11.50;99.90;;;;;;4993899;28;20027;-74
2021/11/13 08:59:37;;;;;;;77.75;33.10;;;11.50;99.90;;;;;;4993748;28;20033;-74
2021/11/13 09:02:09;;;;;;;75.95;34.35;;;11.50;99.90;;;;;;4993911;28;20111;-74
2021/11/13 09:04:35;;;;;;;70.43;33.42;;;11.50;99.90;;;;;;4994588;28;20049;-73
2021/11/13 09:07:04;;;;;;;84.40;34.63;;;11.50;99.90;;;;;;4977693;28;20029;-74
2021/11/13 09:09:32;;;;;;;69.18;33.53;;;11.60;99.90;;;;;;4976371;28;20030;-73
2021/11/13 09:12:02;;;;;;;73.68;33.78;;;11.60;99.90;;;;;;4993590;28;20026;-74
2021/11/13 09:14:31;;;;;;;69.35;33.97;;;11.70;99.90;;;;;;4975754;28;20030;-74
2021/11/13 09:16:56;;;;;;;74.97;34.45;;;11.70;99.90;;;;;;4976128;28;20353;-74
2021/11/13 09:19:22;;;;;;;78.80;35.42;;;11.70;99.90;;;;;;4993483;28;20089;-74
2021/11/13 09:21:48;;;;;;;77.70;33.05;;;11.70;99.90;;;;;;4993477;28;20113;-74
2021/11/13 09:24:14;;;;;;;73.72;33.55;;;11.70;99.90;;;;;;4993746;28;20023;-74
2021/11/13 09:26:39;;;;;;;77.10;34.17;;;11.80;99.90;;;;;;4993788;28;20468;-74
2021/11/13 09:29:06;;;;;;;70.10;33.67;;;11.80;99.90;;;;;;4993804;28;20054;-74
2021/11/13 09:31:32;;;;;;;67.82;31.80;;;11.80;99.90;;;;;;4993402;28;20408;-74
2021/11/13 09:33:58;;;;;;;83.50;34.60;;;11.90;99.90;;;;;;4993598;28;20026;-74
2021/11/13 09:36:23;;;;;;;65.72;32.63;;;11.90;99.90;;;;;;4993111;28;20400;-74
2021/11/13 09:38:49;;;;;;;75.55;34.53;;;11.90;99.90;;;;;;4975342;28;20065;-74
2021/11/13 09:41:15;;;;;;;74.93;33.95;;;12.00;99.90;;;;;;4992553;28;20057;-74
2021/11/13 09:43:42;;;;;;;67.40;32.25;;;12.00;99.90;;;;;;4992832;28;20017;-74
2021/11/13 09:46:09;;;;;;;77.40;34.28;;;12.00;99.90;;;;;;4992841;28;20364;-74
2021/11/13 09:48:37;;;;;;;74.65;34.45;;;12.00;99.90;;;;;;4992649;28;20472;-74
2021/11/13 09:51:04;;;;;;;65.78;31.17;;;12.00;99.90;;;;;;4993027;28;20492;-74
2021/11/13 09:53:31;;;;;;;67.85;32.47;;;12.10;99.90;;;;;;4992757;28;20440;-74
2021/11/13 09:55:58;;;;;;;75.97;33.28;;;12.10;99.90;;;;;;4975174;28;20026;-74
2021/11/13 09:58:25;;;;;;;76.60;35.20;;;12.10;99.90;;;;;;4975163;28;20034;-74
2021/11/13 10:00:52;;;;;;;73.63;34.10;;;12.10;99.90;;;;;;4992273;28;20117;-79
2021/11/13 10:03:19;;;;;;;70.03;33.75;;;12.20;99.90;;;;;;4991976;28;20026;-80
2021/11/13 10:05:57;;;;;;;70.53;32.63;;;12.20;99.90;;;;;;4991962;28;20062;-81
2021/11/13 10:08:23;;;;;;;70.93;34.40;;;12.20;99.90;;;;;;4991990;28;20026;-80
2021/11/13 10:11:00;;;;;;;71.00;32.10;;;12.30;99.90;;;;;;4992017;28;20034;-80
2021/11/13 10:13:37;;;;;;;75.75;33.92;;;12.30;99.90;;;;;;4991588;28;20019;-81
2021/11/13 10:16:08;;;;;;;77.10;33.40;;;12.40;99.90;;;;;;4991995;28;20031;-81
2021/11/13 10:18:38;;;;;;;72.22;33.17;;;12.50;99.90;;;;;;4991789;28;20109;-81
2021/11/13 10:21:26;;;;;;;68.45;33.25;;;12.50;99.90;;;;;;4974167;28;20477;-81
2021/11/13 10:24:25;;;;;;;74.38;34.33;;;12.60;99.90;;;;;;4991715;28;20027;-81
2021/11/13 10:26:59;;;;;;;73.75;33.83;;;12.70;99.90;;;;;;4994855;28;20035;-82
2021/11/13 10:29:31;;;;;;;74.90;34.28;;;12.70;99.90;;;;;;4995417;28;20027;-82
2021/11/13 10:32:01;;;;;;;70.00;33.60;;;12.70;99.90;;;;;;4995515;28;20097;-82
2021/11/13 10:34:34;;;;;;;71.88;32.78;;;12.70;99.90;;;;;;4995590;28;20109;-82
2021/11/13 10:37:03;;;;;;;72.93;33.20;;;12.70;99.90;;;;;;4995593;28;20030;-81
2021/11/13 10:39:31;;;;;;;72.60;33.78;;;12.70;99.90;;;;;;4995768;28;20065;-82
2021/11/13 10:42:00;;;;;;;74.43;35.33;;;12.80;99.90;;;;;;4995193;28;20023;-82
2021/11/13 11:09:27;;;;;;;69.30;35.38;;;12.70;99.90;;;;;;6260221;22;1297304;-75
2021/11/13 11:11:59;;;;;;;71.72;34.53;;;13.10;99.90;;;;;;6312395;22;19999;-75
2021/11/13 11:14:28;;;;;;;72.97;36.47;;;13.10;99.90;;;;;;6312623;22;20030;-75
2021/11/13 11:16:58;;;;;;;77.10;38.83;;;13.20;99.90;;;;;;6285158;22;20011;-75
2021/11/13 11:19:27;;;;;;;70.10;34.63;;;13.20;99.90;;;;;;6285692;22;20434;-75
2021/11/13 11:21:56;;;;;;;69.80;34.00;;;13.20;99.90;;;;;;6312917;22;20023;-75
2021/11/13 11:24:51;;;;;;;71.57;35.05;;;13.20;99.90;;;;;;6286074;22;19999;-75
2021/11/13 11:27:19;;;;;;;74.70;36.95;;;13.30;99.90;;;;;;6313743;22;20003;-75
2021/11/13 11:30:03;;;;;;;66.20;34.83;;;13.30;99.90;;;;;;6313741;22;20010;-74
2021/11/13 11:32:35;;;;;;;72.05;35.63;;;13.40;99.90;;;;;;6313835;22;20045;-74
2021/11/13 11:35:10;;;;;;;65.93;35.67;;;13.40;99.90;;;;;;6312538;22;20026;-75
2021/11/13 11:37:43;;;;;;;68.47;35.33;;;13.40;99.90;;;;;;6314131;22;20006;-74
2021/11/13 11:40:24;;;;;;;73.72;36.30;;;13.50;99.90;;;;;;6314163;22;20002;-74
2021/11/13 11:42:51;;;;;;;77.22;38.20;;;13.50;99.90;;;;;;6313960;22;20102;-74
2021/11/13 11:45:24;;;;;;;70.97;37.60;;;13.50;99.90;;;;;;6313942;22;20023;-74
2021/11/13 11:47:52;;;;;;;81.82;41.00;;;13.40;99.90;;;;;;6313930;22;20003;-74
2021/11/13 11:50:24;;;;;;;78.30;39.00;;;13.40;99.90;;;;;;6314089;22;20007;-74
2021/11/13 11:52:55;;;;;;;80.28;41.97;;;13.50;99.90;;;;;;6286351;22;20005;-74
2021/11/13 11:55:22;;;;;;;79.40;40.63;;;13.50;99.90;;;;;;6314007;22;20003;-74
2021/11/13 11:57:56;;;;;;;82.28;41.90;;;13.50;99.90;;;;;;6314006;22;20385;-74
2021/11/13 12:00:26;;;;;;;76.68;41.53;;;13.50;99.90;;;;;;6313915;22;20005;-74
2021/11/13 12:02:58;;;;;;;80.00;41.97;;;13.50;99.90;;;;;;6313803;22;20361;-74
2021/11/13 12:05:27;;;;;;;76.78;40.47;;;13.50;99.90;;;;;;6314039;22;19999;-74
2021/11/13 12:07:57;;;;;;;73.07;40.63;;;13.50;99.90;;;;;;6313231;22;20042;-74
2021/11/13 12:10:26;;;;;;;78.32;42.53;;;13.50;99.90;;;;;;6306929;22;19999;-74
2021/11/13 12:13:06;;;;;;;70.57;39.90;;;13.50;99.90;;;;;;6306729;22;19999;-74
2021/11/13 12:15:34;;;;;;;71.07;39.22;;;13.40;99.90;;;;;;6306708;22;20121;-74
2021/11/13 12:18:27;;;;;;;79.10;40.28;;;13.50;99.90;;;;;;6306772;22;19999;-74
2021/11/13 12:21:04;;;;;;;73.45;39.05;;;13.40;99.90;;;;;;6273448;22;20049;-74
2021/11/13 12:23:50;;;;;;;72.13;39.03;;;13.40;99.90;;;;;;6306971;22;20082;-74
2021/11/13 12:26:20;;;;;;;65.32;37.30;;;13.40;99.90;;;;;;6306849;22;20017;-74
2021/11/13 12:28:46;;;;;;;74.38;38.17;;;13.40;99.90;;;;;;6279476;22;20023;-74
2021/11/13 12:31:23;;;;;;;75.40;39.75;;;13.40;99.90;;;;;;6279041;22;20002;-74
2021/11/13 12:33:55;;;;;;;75.35;40.85;;;13.50;99.90;;;;;;6306732;22;19995;-74
2021/11/13 12:36:26;;;;;;;81.50;41.65;;;13.50;99.90;;;;;;6306795;22;20438;-74
2021/11/13 12:39:03;;;;;;;75.30;39.67;;;13.50;99.90;;;;;;6279350;22;19999;-74
2021/11/13 12:41:51;;;;;;;68.80;39.10;;;13.50;99.90;;;;;;6306419;22;20023;-74
2021/11/13 12:44:28;;;;;;;75.60;39.63;;;13.40;99.90;;;;;;6279172;22;20331;-74
2021/11/13 12:47:00;;;;;;;74.63;40.53;;;13.50;99.90;;;;;;6306417;22;20007;-74
2021/11/13 12:49:35;;;;;;;79.78;43.10;;;13.50;99.90;;;;;;6306747;22;19999;-74
2021/11/13 12:52:03;;;;;;;74.38;40.22;;;13.50;99.90;;;;;;6306628;22;20075;-74
2021/11/13 12:54:57;;;;;;;73.55;40.13;;;13.60;99.90;;;;;;6279246;22;20018;-74
2021/11/13 12:57:36;;;;;;;84.72;40.65;;;13.60;99.90;;;;;;6252370;22;20007;-74
2021/11/13 13:00:06;;;;;;;76.88;38.78;;;13.70;99.90;;;;;;6306299;22;19999;-74
2021/11/13 13:02:33;;;;;;;81.22;42.53;;;13.70;99.90;;;;;;6306545;22;20000;-74